• Join FlightAware (Why Join?)
  • Login
  • US Flag 
04:36PM EDT


 

Airport Tracker/Info


-or-


 

Live Flight TrackerFlight Track Log ✈ SKW2965 ✈ 27-Apr-2012 ✈ KMRY - KPHX

Flight Track Log - Related Links

Times and Time Zones

All times are in EDT time to prevent confusion due to time zone crossing. See the SKW2965 flight status page for this flight to view local times or setup timezone preferences in your user account.

Time Position Orientation Groundspeed Altitude Reporting Facility
EDT Latitude Longitude Course Direction KTS MPH feet Rate Location/Type
09:13AM 36.6000 -121.8833 345° North 154 177 1,600  Level Northern Cal TRACON
09:14AM 36.6500 -121.9000 96° East 184 212 3,700 2,220 Climbing Northern Cal TRACON
09:16AM 36.6381 -121.7681 124° Southeast 207 238 8,700 1,860 Climbing Oakland Center
09:17AM 36.5925 -121.6847 125° Southeast 239 275 9,900 1,620 Climbing Oakland Center
09:18AM 36.5408 -121.5914 125° Southeast 286 329 12,000 1,920 Climbing Oakland Center
09:19AM 36.4892 -121.4981 126° Southeast 315 362 13,800 1,800 Climbing Oakland Center
09:20AM 36.4333 -121.4019 125° Southeast 336 387 15,700 1,800 Climbing Oakland Center
09:21AM 36.3772 -121.3036 126° Southeast 342 394 17,400 1,380 Climbing Oakland Center
09:22AM 36.3192 -121.2028 124° Southeast 347 399 18,500 1,020 Climbing Oakland Center
09:23AM 36.2608 -121.0972 138° Southeast 360 414 19,500 1,200 Climbing Oakland Center
09:24AM 36.1797 -121.0069 137° Southeast 371 427 20,900 1,200 Climbing Oakland Center
09:25AM 36.1025 -120.9169 114° Southeast 377 434 22,000 1,020 Climbing Oakland Center
09:26AM 36.0606 -120.7989 96° East 382 440 23,000 960 Climbing Oakland Center
09:27AM 36.0478 -120.6603 96° East 376 433 24,000 900 Climbing Oakland Center
09:28AM 36.0347 -120.5192 96° East 392 451 24,900 900 Climbing Oakland Center
09:29AM 36.0236 -120.3781 97° East 398 458 25,800 840 Climbing Oakland Center
09:30AM 36.0044 -120.1825 94° East 430 495 27,000 840 Climbing Los Angeles Center
09:31AM 35.9967 -120.0383 88° East 425 489 27,800 720 Climbing Los Angeles Center
09:32AM 36.0011 -119.8950 100° East 425 489 28,500 600 Climbing Los Angeles Center
09:33AM 35.9789 -119.7372 138° Southeast 415 478 29,100 600 Climbing Los Angeles Center
09:34AM 35.8881 -119.6358 139° Southeast 402 463 29,700 600 Climbing Los Angeles Center
09:35AM 35.7947 -119.5369 137° Southeast 413 475 30,400 600 Climbing Los Angeles Center
09:36AM 35.7039 -119.4333 136° Southeast 433 498 31,000 540 Climbing Los Angeles Center
09:37AM 35.6167 -119.3303 134° Southeast 440 506 31,500 420 Climbing Los Angeles Center
09:38AM 35.5300 -119.2197 133° Southeast 440 506 31,900 420 Climbing Los Angeles Center
09:39AM 35.4450 -119.1069 134° Southeast 445 512 32,400 480 Climbing Los Angeles Center
09:40AM 35.3581 -118.9967 133° Southeast 450 518 32,900 300 Climbing Los Angeles Center
09:41AM 35.2731 -118.8842 133° Southeast 450 518 33,000  Climbing Los Angeles Center
09:42AM 35.1878 -118.7719 134° Southeast 450 518 33,000  Level Los Angeles Center
09:43AM 35.1047 -118.6653 134° Southeast 445 512 33,000  Level Los Angeles Center
09:44AM 35.0192 -118.5586 135° Southeast 445 512 33,000  Level Los Angeles Center
09:45AM 34.9417 -118.4628 134° Southeast 445 512 33,000  Level Los Angeles Center
09:46AM 34.8539 -118.3539 135° Southeast 445 512 33,000  Level Los Angeles Center
09:47AM 34.7661 -118.2453 134° Southeast 445 512 33,000  Level Los Angeles Center
09:48AM 34.6783 -118.1344 123° Southeast 445 512 33,000  Level Los Angeles Center
09:49AM 34.6114 -118.0092 110° East 445 512 33,000  Level Los Angeles Center
09:50AM 34.5658 -117.8592 110° East 451 519 33,000  Level Los Angeles Center
09:51AM 34.5217 -117.7147 110° East 451 519 33,000  Level Los Angeles Center
09:52AM 34.4778 -117.5678 109° East 456 525 33,000  Level Los Angeles Center
09:53AM 34.4356 -117.4233 111° Southeast 456 525 33,000  Level Los Angeles Center
09:54AM 34.3911 -117.2817 107° East 456 525 33,000  Level Los Angeles Center
09:55AM 34.3547 -117.1378 111° Southeast 449 517 33,000  Level Los Angeles Center
09:56AM 34.3100 -116.9939 111° Southeast 449 517 33,000  Level Los Angeles Center
09:57AM 34.2631 -116.8425 114° Southeast 449 517 33,000  Level Los Angeles Center
09:58AM 34.2156 -116.7142 111° Southeast 455 524 33,000  Level Los Angeles Center
09:59AM 34.1703 -116.5731 109° East 455 524 33,000  Level Los Angeles Center
10:00AM 34.1292 -116.4300 109° East 455 524 33,000  Level Los Angeles Center
10:01AM 34.0897 -116.2892 111° Southeast 448 516 33,000  Level Los Angeles Center
10:02AM 34.0397 -116.1339 111° Southeast 448 516 33,000  Level Los Angeles Center
10:03AM 33.9917 -115.9833 111° Southeast 454 522 33,000  Level Los Angeles Center
10:04AM 33.9456 -115.8358 111° Southeast 460 529 33,000  Level Los Angeles Center
10:05AM 33.8969 -115.6833 112° Southeast 473 544 33,000  Level Los Angeles Center
10:06AM 33.8461 -115.5283 111° Southeast 483 556 33,000  Level Los Angeles Center
10:07AM 33.7975 -115.3764 112° Southeast 483 556 33,000  Level Los Angeles Center
10:08AM 33.7464 -115.2219 111° Southeast 489 563 33,000  Level Los Angeles Center
10:09AM 33.6969 -115.0675 108° East 494 568 33,000  Level Los Angeles Center
10:10AM 33.6561 -114.9158 106° East 494 568 33,000  Level Los Angeles Center
10:11AM 33.6189 -114.7592 106° East 483 556 33,000 -480 Level Los Angeles Center
10:12AM 33.5814 -114.6003 105° East 478 550 32,100 -1,560 Descending Los Angeles Center
10:13AM 33.5461 -114.4414 105° East 478 550 29,900 -2,160 Descending Los Angeles Center
10:15AM 33.4969 -114.2281 107° East 483 556 26,800 -1,980 Descending Albuquerque Center
10:16AM 33.4611 -114.0858 104° East 475 547 25,000 -1,260 Descending Albuquerque Center
10:17AM 33.4314 -113.9467 102° East 451 519 24,300 -1,200 Descending Albuquerque Center
10:18AM 33.4042 -113.7978 104° East 445 512 22,700 -1,680 Descending Albuquerque Center
10:19AM 33.3761 -113.6589 102° East 433 498 21,000 -1,740 Descending Albuquerque Center
10:20AM 33.3517 -113.5228 95° East 433 498 19,300 -1,740 Descending Albuquerque Center
10:21AM 33.3419 -113.3853 99° East 427 491 17,600 -1,740 Descending Albuquerque Center
10:22AM 33.3253 -113.2625 96° East 398 458 15,900 -1,800 Descending Albuquerque Center
10:23AM 33.3144 -113.1425 98° East 375 432 14,100 -1,800 Descending Albuquerque Center
10:24AM 33.3011 -113.0297 98° East 357 411 12,400 -1,740 Descending Albuquerque Center
10:25AM 33.2892 -112.9247 94° East 335 386 10,700 -1,260 Descending Albuquerque Center
10:26AM 33.2836 -112.8200 68° East 319 367 9,900 -420 Descending Albuquerque Center
10:27AM 33.3128 -112.7325 64° Northeast 288 331 9,900 -120 Level Albuquerque Center
10:28AM 33.3478 -112.6453 67° East 282 325 9,700 -840 Descending Albuquerque Center
10:30AM 33.4167 -112.4500 77° East 249 287 7,200 -1,140 Descending Phoenix TRACON
10:31AM 33.4333 -112.3667 90° East 238 274 6,000 -900 Descending Phoenix TRACON
10:32AM 33.4333 -112.2833 90° East 221 254 5,400 -900 Descending Phoenix TRACON
10:33AM 33.4333 -112.2333 90° East 189 217 4,300 -1,140 Descending Phoenix TRACON
10:34AM 33.4333 -112.1667 90° East 185 213 3,100 -960 Descending Phoenix TRACON
10:35AM 33.4333 -112.1000 90° East 156 180 2,400 -780 Descending Phoenix TRACON
10:36AM 33.4333 -112.0500 90° East 144 166 1,600 -840 Descending Phoenix TRACON